Time;durP1;ratioP1;P1;durP2;ratioP2;P2;SDS_P1;SDS_P2;PMS_P1;PMS_P2;Temp;Humidity;BMP_temperature;BMP_pressure;BME280_temperature;BME280_humidity;BME280_pressure;Samples;Min_cycle;Max_cycle;Signal;HPM_P1;HPM_P2
2021/10/14 00:01:35;;;;;;;8.98;6.00;;;;;;;5.94;80.15;97189.22;4989460;28;20518;-72
2021/10/14 00:04:01;;;;;;;9.18;5.50;;;;;;;5.92;79.99;97194.09;4990173;28;20054;-72
2021/10/14 00:06:28;;;;;;;9.27;5.40;;;;;;;5.94;80.09;97194.63;4989372;28;20054;-72
2021/10/14 00:08:54;;;;;;;9.05;5.70;;;;;;;5.91;80.13;97194.34;4990453;28;20078;-71
2021/10/14 00:11:21;;;;;;;12.32;5.82;;;;;;;5.91;80.32;97199.75;4991076;28;20130;-71
2021/10/14 00:13:49;;;;;;;7.47;5.13;;;;;;;5.91;80.27;97200.59;4990104;28;20050;-72
2021/10/14 00:16:15;;;;;;;13.32;6.50;;;;;;;5.86;80.09;97181.63;4988512;28;20050;-71
2021/10/14 00:18:43;;;;;;;8.18;5.78;;;;;;;5.85;80.65;97188.13;4989524;28;20050;-71
2021/10/14 00:21:10;;;;;;;10.15;5.65;;;;;;;5.88;80.94;97184.06;4988585;28;20078;-72
2021/10/14 00:23:36;;;;;;;11.77;6.20;;;;;;;5.90;80.74;97185.44;4989300;28;20053;-72
2021/10/14 00:26:03;;;;;;;8.85;5.95;;;;;;;5.91;80.36;97184.38;4989138;28;20129;-72
2021/10/14 00:28:29;;;;;;;9.10;5.85;;;;;;;5.92;80.74;97180.59;4989123;28;20054;-71
2021/10/14 00:30:57;;;;;;;8.60;6.32;;;;;;;5.95;80.46;97180.06;4989539;28;20525;-72
2021/10/14 00:33:24;;;;;;;9.50;5.65;;;;;;;5.96;80.63;97176.28;4988133;28;20053;-72
2021/10/14 00:35:50;;;;;;;12.52;6.28;;;;;;;5.98;79.78;97179.50;4989546;28;20054;-72
2021/10/14 00:38:17;;;;;;;8.50;5.70;;;;;;;5.96;79.40;97170.88;4988099;28;20053;-71
2021/10/14 00:40:45;;;;;;;9.25;5.53;;;;;;;5.90;80.12;97177.31;4991154;28;20069;-72
2021/10/14 00:43:12;;;;;;;9.80;6.03;;;;;;;5.89;80.08;97181.09;5004440;28;20536;-71
2021/10/14 00:45:39;;;;;;;10.55;6.38;;;;;;;5.87;80.39;97177.84;5008403;28;20050;-71
2021/10/14 00:48:07;;;;;;;10.65;6.38;;;;;;;5.90;80.00;97171.06;5008704;28;20082;-71
2021/10/14 00:50:34;;;;;;;11.30;6.32;;;;;;;5.93;80.14;97176.81;5008494;28;20053;-71
2021/10/14 00:53:01;;;;;;;14.80;6.78;;;;;;;5.90;79.62;97171.91;5002067;28;20042;-72
2021/10/14 00:55:28;;;;;;;11.55;6.97;;;;;;;5.94;79.79;97167.59;4999927;28;20037;-72
2021/10/14 00:57:55;;;;;;;10.98;5.90;;;;;;;5.94;79.63;97173.00;5009185;28;20077;-71
2021/10/14 01:00:22;;;;;;;9.05;6.13;;;;;;;5.90;79.22;97168.38;5007689;28;20050;-71
2021/10/14 01:02:48;;;;;;;10.32;6.35;;;;;;;5.88;79.54;97179.47;5009598;28;20076;-72
2021/10/14 01:05:16;;;;;;;10.13;6.15;;;;;;;5.87;79.82;97177.84;5008599;28;20054;-71
2021/10/14 01:07:43;;;;;;;11.98;6.70;;;;;;;5.88;79.97;97182.16;5008826;28;20050;-71
2021/10/14 01:10:10;;;;;;;8.88;6.07;;;;;;;5.89;80.26;97183.78;5008168;28;20560;-72
2021/10/14 01:12:38;;;;;;;9.88;6.13;;;;;;;5.92;80.01;97183.28;5007420;28;20071;-72
2021/10/14 01:15:19;;;;;;;10.80;6.28;;;;;;;5.88;80.35;97179.47;5008424;28;20049;-72
2021/10/14 01:17:46;;;;;;;10.93;6.57;;;;;;;5.85;79.80;97190.03;5007822;28;20050;-71
2021/10/14 01:20:14;;;;;;;8.23;5.78;;;;;;;5.80;79.82;97176.50;5008617;28;20045;-71
2021/10/14 01:22:40;;;;;;;15.00;6.45;;;;;;;5.81;80.26;97188.91;5013131;28;20038;-71
2021/10/14 01:25:08;;;;;;;10.45;6.68;;;;;;;5.83;79.91;97187.56;5028296;28;20072;-72
2021/10/14 01:27:35;;;;;;;10.38;6.32;;;;;;;5.76;80.23;97178.91;5027957;28;20567;-71
2021/10/14 01:30:02;;;;;;;13.73;6.85;;;;;;;5.71;80.34;97178.91;5027580;28;20047;-71
2021/10/14 01:32:28;;;;;;;11.13;6.88;;;;;;;5.64;80.50;97171.06;5027500;28;20642;-71
2021/10/14 01:34:55;;;;;;;13.02;6.78;;;;;;;5.61;80.68;97168.06;5028193;28;20057;-71
2021/10/14 01:37:22;;;;;;;11.45;6.40;;;;;;;5.53;80.70;97171.25;5027731;28;20049;-71
2021/10/14 01:39:49;;;;;;;11.82;6.95;;;;;;;5.47;80.90;97171.25;5027382;28;20061;-71
2021/10/14 01:42:15;;;;;;;12.48;6.90;;;;;;;5.46;80.96;97177.72;5028035;28;20049;-71
2021/10/14 01:44:43;;;;;;;12.43;7.10;;;;;;;5.43;81.08;97178.28;5027263;28;20052;-71
2021/10/14 01:47:10;;;;;;;10.48;6.35;;;;;;;5.38;81.48;97183.66;5027412;28;20103;-71
2021/10/14 01:49:36;;;;;;;11.50;6.63;;;;;;;5.36;81.45;97182.28;5027326;28;20056;-72
2021/10/14 01:52:03;;;;;;;10.13;6.53;;;;;;;5.34;81.68;97176.34;5027002;28;20513;-71
2021/10/14 01:54:31;;;;;;;11.07;6.70;;;;;;;5.31;81.48;97182.25;5016825;28;20042;-72
2021/10/14 01:56:57;;;;;;;11.68;6.60;;;;;;;5.33;81.34;97178.22;5007646;28;20061;-72
2021/10/14 01:59:24;;;;;;;10.18;6.40;;;;;;;5.33;81.13;97172.84;5007515;28;20046;-72
2021/10/14 02:01:50;;;;;;;11.02;6.43;;;;;;;5.30;81.60;97177.94;5007099;28;20054;-72
2021/10/14 02:04:17;;;;;;;10.82;6.70;;;;;;;5.32;81.30;97175.78;5007940;28;20069;-71
2021/10/14 02:06:43;;;;;;;9.68;5.70;;;;;;;5.34;81.19;97168.25;5006574;28;20049;-71
2021/10/14 02:09:10;;;;;;;13.32;6.65;;;;;;;5.33;81.34;97156.63;5008186;28;20660;-71
2021/10/14 02:11:38;;;;;;;10.23;6.40;;;;;;;5.29;81.51;97166.34;5007187;28;20050;-72
2021/10/14 02:14:04;;;;;;;10.63;6.78;;;;;;;5.32;81.17;97170.38;5007574;28;20061;-72
2021/10/14 02:16:31;;;;;;;10.38;6.35;;;;;;;5.25;81.62;97176.03;5007357;28;20050;-71
2021/10/14 02:18:57;;;;;;;12.18;6.72;;;;;;;5.26;81.85;97177.66;5007875;28;20054;-71
2021/10/14 02:21:24;;;;;;;12.38;7.22;;;;;;;5.31;81.65;97183.06;5007084;28;20064;-72
2021/10/14 02:23:51;;;;;;;17.08;6.63;;;;;;;5.29;81.26;97179.84;5022825;28;20687;-71
2021/10/14 02:26:17;;;;;;;10.68;6.43;;;;;;;5.31;81.62;97185.78;5030801;28;20053;-71
2021/10/14 02:28:45;;;;;;;12.45;6.95;;;;;;;5.23;81.43;97179.00;5025156;28;20064;-71
2021/10/14 02:31:11;;;;;;;10.00;6.05;;;;;;;5.17;81.30;97181.94;5029106;28;20049;-71
2021/10/14 02:33:38;;;;;;;11.10;6.65;;;;;;;5.11;81.89;97174.88;5030244;28;20479;-71
2021/10/14 02:36:05;;;;;;;11.07;6.60;;;;;;;5.13;81.96;97170.03;5030724;28;20053;-72
2021/10/14 02:38:31;;;;;;;12.23;6.80;;;;;;;5.17;82.62;97179.25;5030728;28;20830;-72
2021/10/14 02:40:58;;;;;;;12.23;7.22;;;;;;;5.24;82.77;97179.81;5031022;28;20068;-72
2021/10/14 02:43:24;;;;;;;11.95;6.78;;;;;;;5.34;82.43;97184.44;5030579;28;20050;-71
2021/10/14 02:45:52;;;;;;;14.65;7.38;;;;;;;5.40;82.09;97178.78;5030878;28;20049;-71
2021/10/14 02:48:19;;;;;;;14.77;7.10;;;;;;;5.41;81.76;97183.13;5030579;28;20063;-71
2021/10/14 02:50:45;;;;;;;12.85;6.63;;;;;;;5.47;81.48;97179.34;5030301;28;20045;-72
2021/10/14 02:53:12;;;;;;;11.27;7.03;;;;;;;5.52;81.96;97180.44;5030878;28;20056;-71
2021/10/14 02:55:38;;;;;;;11.55;7.10;;;;;;;5.57;81.20;97177.75;5010547;28;20061;-72
2021/10/14 02:58:05;;;;;;;12.95;6.68;;;;;;;5.60;81.01;97171.84;5011154;28;20053;-71
2021/10/14 03:00:31;;;;;;;11.73;6.55;;;;;;;5.63;81.19;97177.50;5010349;28;20045;-72
2021/10/14 03:02:59;;;;;;;8.35;5.50;;;;;;;5.60;80.30;97171.84;5011568;28;20065;-73
2021/10/14 03:05:26;;;;;;;13.35;6.68;;;;;;;5.58;80.56;97169.38;5010240;28;20591;-72
2021/10/14 03:07:52;;;;;;;10.50;5.88;;;;;;;5.60;80.58;97166.44;5010858;28;20612;-71
2021/10/14 03:10:19;;;;;;;13.05;6.65;;;;;;;5.62;80.33;97177.78;5010409;28;20045;-71
2021/10/14 03:12:45;;;;;;;10.48;6.25;;;;;;;5.67;80.48;97180.50;5010500;28;20045;-71
2021/10/14 03:15:12;;;;;;;13.05;7.28;;;;;;;5.69;80.40;97178.31;5010573;28;20046;-72
2021/10/14 03:17:38;;;;;;;12.30;6.60;;;;;;;5.72;80.60;97177.81;5005076;28;20057;-71
2021/10/14 03:20:07;;;;;;;13.82;6.88;;;;;;;5.70;80.50;97171.88;5007892;28;20050;-71
2021/10/14 03:22:34;;;;;;;12.43;7.63;;;;;;;5.59;80.94;97164.81;5013731;28;20046;-71
2021/10/14 03:25:00;;;;;;;13.15;7.57;;;;;;;5.54;81.21;97170.22;5013672;28;20054;-72
2021/10/14 03:27:27;;;;;;;14.13;7.82;;;;;;;5.52;81.41;97172.34;5009984;28;20052;-72
2021/10/14 03:29:53;;;;;;;14.65;8.52;;;;;;;5.43;81.78;97175.56;5010154;28;20046;-72
2021/10/14 03:32:20;;;;;;;13.98;8.20;;;;;;;5.35;82.20;97164.47;5009556;28;20061;-71
2021/10/14 03:34:46;;;;;;;19.73;8.80;;;;;;;5.33;82.38;97156.63;5009834;28;20049;-71
2021/10/14 03:37:14;;;;;;;14.68;8.57;;;;;;;5.30;82.59;97162.53;5009236;28;20056;-71
2021/10/14 03:39:41;;;;;;;16.10;8.70;;;;;;;5.24;82.58;97158.22;5009593;28;20121;-71
2021/10/14 03:42:07;;;;;;;18.05;9.93;;;;;;;5.25;82.86;97154.44;5010082;28;20517;-71
2021/10/14 03:44:34;;;;;;;19.52;10.75;;;;;;;5.30;83.09;97170.66;5009672;28;20050;-71
2021/10/14 03:47:00;;;;;;;19.27;10.65;;;;;;;5.30;82.86;97177.94;5010287;28;20053;-71
2021/10/14 03:49:27;;;;;;;20.40;10.75;;;;;;;5.25;82.83;97173.31;5001333;28;20489;-71
2021/10/14 03:51:53;;;;;;;23.55;12.32;;;;;;;5.23;82.81;97172.78;5010147;28;20053;-71
2021/10/14 03:54:21;;;;;;;24.85;12.27;;;;;;;5.29;83.15;97171.72;5024411;28;20049;-72
2021/10/14 03:56:47;;;;;;;27.08;13.02;;;;;;;5.34;83.16;97184.44;5028142;28;20049;-71
2021/10/14 03:59:14;;;;;;;20.75;12.05;;;;;;;5.40;82.72;97189.59;5027821;28;20053;-71
2021/10/14 04:01:40;;;;;;;28.42;12.98;;;;;;;5.43;82.37;97178.28;5028640;28;20045;-71
2021/10/14 04:04:07;;;;;;;19.98;10.98;;;;;;;5.45;82.12;97186.91;5029079;28;20049;-72
2021/10/14 04:06:33;;;;;;;20.00;11.65;;;;;;;5.49;82.31;97192.63;5028852;28;20045;-71
2021/10/14 04:09:00;;;;;;;23.25;11.57;;;;;;;5.46;82.43;97204.75;5029613;28;20512;-71
2021/10/14 04:11:28;;;;;;;19.23;10.57;;;;;;;5.50;82.64;97189.63;5028336;28;20049;-71
2021/10/14 04:13:54;;;;;;;19.65;10.25;;;;;;;5.59;82.49;97191.84;5029742;28;20076;-71
2021/10/14 04:16:21;;;;;;;19.05;10.15;;;;;;;5.59;81.88;97192.66;5028108;28;20049;-71
2021/10/14 04:18:47;;;;;;;17.20;9.10;;;;;;;5.58;81.93;97184.78;5029254;28;20739;-71
2021/10/14 04:21:14;;;;;;;17.17;9.48;;;;;;;5.51;82.09;97179.63;5027799;28;20045;-71
2021/10/14 04:23:42;;;;;;;17.33;9.23;;;;;;;5.47;82.15;97192.84;5021395;28;20048;-73
2021/10/14 04:26:09;;;;;;;17.98;9.20;;;;;;;5.46;82.38;97176.91;5009013;28;20085;-71
2021/10/14 04:28:37;;;;;;;16.50;8.77;;;;;;;5.44;82.72;97190.69;5008770;28;20056;-72
2021/10/14 04:31:04;;;;;;;16.25;8.93;;;;;;;5.42;82.56;97194.72;5015526;28;20052;-72
2021/10/14 04:33:31;;;;;;;14.50;7.97;;;;;;;5.40;82.52;97189.59;5028070;28;20049;-71
2021/10/14 04:36:01;;;;;;;16.23;8.65;;;;;;;5.37;82.64;97184.72;5029218;28;20056;-71
2021/10/14 04:38:28;;;;;;;14.57;8.23;;;;;;;5.41;82.61;97196.63;5028187;28;20053;-71
2021/10/14 04:40:54;;;;;;;15.48;8.38;;;;;;;5.44;82.79;97184.50;5028739;28;20069;-71
2021/10/14 04:43:22;;;;;;;12.70;7.70;;;;;;;5.45;82.88;97186.91;5028488;28;20432;-72
2021/10/14 04:45:50;;;;;;;17.85;8.35;;;;;;;5.55;82.86;97185.34;5028377;28;20068;-71
2021/10/14 04:48:17;;;;;;;15.18;8.20;;;;;;;5.60;82.60;97188.06;5028247;28;20045;-72
2021/10/14 04:50:44;;;;;;;17.05;8.13;;;;;;;5.67;82.39;97185.91;5027911;28;20046;-72
2021/10/14 04:53:11;;;;;;;11.68;7.60;;;;;;;5.70;81.52;97185.38;5028365;28;20041;-72
2021/10/14 04:55:38;;;;;;;16.65;8.48;;;;;;;5.69;81.36;97181.03;5007905;28;20050;-72
2021/10/14 04:58:04;;;;;;;13.57;8.00;;;;;;;5.63;81.41;97188.31;5008979;28;20050;-72
2021/10/14 05:00:31;;;;;;;14.30;7.50;;;;;;;5.60;81.63;97182.66;5004235;28;20065;-75
2021/10/14 05:02:59;;;;;;;16.20;7.70;;;;;;;5.57;81.78;97183.16;5004934;28;20050;-74
2021/10/14 05:05:25;;;;;;;14.57;8.25;;;;;;;5.55;82.23;97182.63;5007847;28;20050;-75
2021/10/14 05:07:52;;;;;;;17.42;9.35;;;;;;;5.55;82.04;97188.84;5007691;28;20172;-74
2021/10/14 05:10:18;;;;;;;13.10;8.40;;;;;;;5.55;82.31;97190.75;5007082;28;20050;-75
2021/10/14 05:12:45;;;;;;;15.90;8.95;;;;;;;5.59;82.50;97197.25;5008262;28;20374;-73
2021/10/14 05:15:12;;;;;;;17.75;9.35;;;;;;;5.64;82.32;97189.16;5008267;28;20050;-72
2021/10/14 05:17:38;;;;;;;16.50;9.55;;;;;;;5.67;82.15;97196.72;5007778;28;20056;-72
2021/10/14 05:20:08;;;;;;;18.17;9.70;;;;;;;5.68;82.25;97206.44;5008568;28;20045;-73
2021/10/14 05:22:35;;;;;;;16.77;10.15;;;;;;;5.71;82.43;97205.91;5011434;28;20049;-73
2021/10/14 05:25:01;;;;;;;17.25;10.30;;;;;;;5.75;82.40;97213.22;5010466;28;20065;-71
2021/10/14 05:27:28;;;;;;;18.02;10.20;;;;;;;5.78;82.36;97211.06;5007686;28;20053;-73
2021/10/14 05:29:54;;;;;;;19.33;11.25;;;;;;;5.72;82.38;97212.94;5005798;28;20065;-74
2021/10/14 05:32:21;;;;;;;19.75;10.10;;;;;;;5.81;82.70;97215.94;5007055;28;21504;-72
2021/10/14 05:34:47;;;;;;;20.02;10.98;;;;;;;5.83;82.20;97211.88;5007539;28;20042;-73
2021/10/14 05:37:15;;;;;;;20.00;10.38;;;;;;;5.87;81.78;97204.06;4999727;28;20046;-74
2021/10/14 05:39:42;;;;;;;20.02;10.95;;;;;;;5.89;81.85;97208.13;5007352;28;20042;-73
2021/10/14 05:42:08;;;;;;;21.15;11.38;;;;;;;5.86;82.04;97216.78;5007839;28;20064;-73
2021/10/14 05:44:35;;;;;;;18.27;10.68;;;;;;;5.86;81.69;97207.84;5007699;28;20049;-73
2021/10/14 05:47:01;;;;;;;19.27;11.82;;;;;;;5.80;82.01;97207.03;5007894;28;20612;-71
2021/10/14 05:49:28;;;;;;;21.05;11.23;;;;;;;5.79;82.34;97207.28;5007335;28;20413;-73
2021/10/14 05:51:54;;;;;;;20.95;10.40;;;;;;;5.75;82.36;97215.13;5008045;28;20054;-73
2021/10/14 05:54:22;;;;;;;21.15;10.52;;;;;;;5.74;82.79;97221.59;5013388;28;20065;-73
2021/10/14 05:56:48;;;;;;;20.88;10.90;;;;;;;5.75;82.52;97217.81;5007835;28;20060;-73
2021/10/14 05:59:15;;;;;;;20.17;10.65;;;;;;;5.76;82.65;97219.44;5006965;28;20050;-74
2021/10/14 06:01:41;;;;;;;19.77;10.85;;;;;;;5.78;82.67;97217.28;5007327;28;20045;-74
2021/10/14 06:04:08;;;;;;;20.85;11.57;;;;;;;5.73;82.58;97219.97;5007734;28;20049;-73
2021/10/14 06:06:34;;;;;;;17.88;10.95;;;;;;;5.72;82.89;97219.16;5007011;28;20520;-73
2021/10/14 06:09:01;;;;;;;19.17;10.85;;;;;;;5.73;83.33;97223.47;5008193;28;20521;-73
2021/10/14 06:11:29;;;;;;;22.85;12.02;;;;;;;5.74;83.31;97227.00;5006752;28;20413;-73
2021/10/14 06:13:55;;;;;;;23.13;11.57;;;;;;;5.72;82.93;97229.16;5007434;28;20521;-73
2021/10/14 06:16:22;;;;;;;19.10;11.40;;;;;;;5.73;83.31;97236.19;5006511;28;20081;-73
2021/10/14 06:18:48;;;;;;;20.30;11.75;;;;;;;5.81;83.45;97232.16;5007825;28;20042;-73
2021/10/14 06:21:15;;;;;;;26.48;12.40;;;;;;;5.83;83.04;97236.22;5006947;28;20057;-73
2021/10/14 06:23:41;;;;;;;21.20;11.15;;;;;;;5.86;83.31;97246.50;5010381;28;20041;-74
2021/10/14 06:26:08;;;;;;;18.05;11.27;;;;;;;5.96;83.04;97246.56;5007407;28;20046;-73
2021/10/14 06:28:36;;;;;;;23.83;11.95;;;;;;;6.03;82.77;97245.50;5006824;28;20061;-73
2021/10/14 06:31:03;;;;;;;21.95;11.55;;;;;;;6.11;82.38;97253.06;5007690;28;20046;-72
2021/10/14 06:33:29;;;;;;;24.20;11.52;;;;;;;6.11;81.95;97245.78;5006860;28;20053;-72
2021/10/14 06:35:56;;;;;;;19.25;11.30;;;;;;;6.16;82.17;97240.41;5007774;28;20053;-74
2021/10/14 06:38:23;;;;;;;19.67;11.23;;;;;;;6.19;82.12;97236.34;5007208;28;20053;-73
2021/10/14 06:40:49;;;;;;;23.05;11.60;;;;;;;6.19;81.92;97239.03;5007206;28;20054;-74
2021/10/14 06:43:16;;;;;;;19.88;11.40;;;;;;;6.25;82.07;97243.38;5006819;28;20042;-73
2021/10/14 06:45:44;;;;;;;20.45;11.65;;;;;;;6.29;81.92;97249.88;5007195;28;20054;-74
2021/10/14 06:48:10;;;;;;;19.15;11.32;;;;;;;6.27;82.00;97252.03;5006881;28;20057;-73
2021/10/14 06:50:37;;;;;;;21.30;11.52;;;;;;;6.29;82.56;97255.28;5006857;28;20049;-74
2021/10/14 06:53:08;;;;;;;23.90;11.90;;;;;;;6.31;82.18;97258.53;5010485;28;20049;-73
2021/10/14 06:55:35;;;;;;;21.60;11.50;;;;;;;6.36;82.16;97255.00;5006640;28;20050;-73
2021/10/14 06:58:01;;;;;;;19.25;11.75;;;;;;;6.33;82.07;97253.66;5007124;28;20520;-73
2021/10/14 07:00:28;;;;;;;20.20;11.93;;;;;;;6.38;82.07;97261.78;5006644;28;20052;-73
2021/10/14 07:02:56;;;;;;;19.55;11.60;;;;;;;6.40;81.80;97256.91;5007515;28;20069;-73
2021/10/14 07:05:22;;;;;;;25.35;12.25;;;;;;;6.38;82.59;97253.69;5006376;28;20042;-73
2021/10/14 07:07:49;;;;;;;22.20;12.82;;;;;;;6.45;82.62;97248.81;5006976;28;20049;-73
2021/10/14 07:10:16;;;;;;;20.05;11.90;;;;;;;6.45;82.13;97248.81;5006515;28;20066;-73
2021/10/14 07:12:43;;;;;;;21.92;11.95;;;;;;;6.49;82.23;97249.91;5010125;28;20050;-73
2021/10/14 07:15:10;;;;;;;20.65;11.95;;;;;;;6.53;81.83;97245.56;5010052;28;20505;-73
2021/10/14 07:17:37;;;;;;;20.92;11.48;;;;;;;6.65;81.77;97241.78;5010207;28;20433;-73
2021/10/14 07:20:07;;;;;;;20.25;11.98;;;;;;;6.69;81.63;97242.88;5010424;28;20568;-73
2021/10/14 07:22:34;;;;;;;21.83;12.60;;;;;;;6.65;81.39;97237.19;5011480;28;20053;-74
2021/10/14 07:25:00;;;;;;;22.27;11.93;;;;;;;6.74;81.76;97234.75;5012065;28;20050;-74
2021/10/14 07:27:27;;;;;;;19.83;11.38;;;;;;;6.84;81.06;97239.31;5009542;28;20050;-73
2021/10/14 07:29:53;;;;;;;20.55;11.75;;;;;;;6.88;80.70;97238.50;5010152;28;20060;-73
2021/10/14 07:32:20;;;;;;;22.50;11.27;;;;;;;6.96;80.25;97237.97;5009877;28;20046;-73
2021/10/14 07:34:46;;;;;;;18.98;11.63;;;;;;;7.03;80.57;97233.06;5009544;28;20041;-73
2021/10/14 07:37:18;;;;;;;22.38;11.80;;;;;;;7.05;80.00;97238.25;5010293;28;20061;-73
2021/10/14 07:39:45;;;;;;;21.35;11.25;;;;;;;7.15;80.19;97237.38;5009418;28;20049;-74
2021/10/14 07:42:12;;;;;;;19.27;10.93;;;;;;;7.18;79.17;97244.97;5009987;28;20050;-73
2021/10/14 07:44:38;;;;;;;19.60;11.57;;;;;;;7.25;79.09;97240.88;5009401;28;20054;-73
2021/10/14 07:47:05;;;;;;;22.02;11.65;;;;;;;7.33;78.60;97247.66;5010168;28;20061;-73
2021/10/14 07:49:32;;;;;;;18.98;10.90;;;;;;;7.41;79.59;97243.53;5009498;28;20042;-74
2021/10/14 07:51:58;;;;;;;18.00;10.27;;;;;;;7.38;78.35;97247.63;5009852;28;20053;-73
2021/10/14 07:54:26;;;;;;;18.60;10.10;;;;;;;7.47;78.66;97246.00;5012220;28;20042;-74
2021/10/14 07:56:53;;;;;;;21.00;11.20;;;;;;;7.54;78.71;97249.22;5009608;28;20046;-74
2021/10/14 07:59:19;;;;;;;22.08;11.70;;;;;;;7.66;78.96;97257.03;5009324;28;20057;-74
2021/10/14 08:01:46;;;;;;;21.40;11.18;;;;;;;7.62;77.75;97252.41;5009208;28;20046;-74
2021/10/14 08:04:13;;;;;;;19.35;9.80;;;;;;;7.66;78.96;97254.31;5009507;28;20057;-73
2021/10/14 08:06:40;;;;;;;17.48;10.23;;;;;;;7.84;78.71;97252.91;5009399;28;20046;-74
2021/10/14 08:09:06;;;;;;;18.90;10.18;;;;;;;7.99;78.07;97254.72;5009637;28;20058;-73
2021/10/14 08:11:34;;;;;;;15.23;9.75;;;;;;;8.10;77.86;97254.38;5009138;28;20501;-74
2021/10/14 08:14:01;;;;;;;19.08;9.65;;;;;;;8.22;77.35;97247.81;5009880;28;20141;-74
2021/10/14 08:16:28;;;;;;;18.88;10.00;;;;;;;8.27;77.17;97261.34;5008926;28;20390;-73
2021/10/14 08:18:54;;;;;;;19.55;9.80;;;;;;;8.31;76.06;97252.38;5009411;28;20046;-74
2021/10/14 08:21:21;;;;;;;17.35;9.45;;;;;;;8.33;74.62;97258.31;5008853;28;20054;-74
2021/10/14 08:23:47;;;;;;;17.92;9.70;;;;;;;8.36;75.48;97259.69;5012248;28;20045;-73
2021/10/14 08:26:14;;;;;;;16.45;9.65;;;;;;;8.40;75.00;97258.00;5009025;28;20049;-73
2021/10/14 08:28:42;;;;;;;15.35;9.23;;;;;;;8.44;74.50;97261.78;5008496;28;20046;-75
2021/10/14 08:31:08;;;;;;;14.52;8.77;;;;;;;8.51;73.89;97262.31;5009428;28;20559;-74
2021/10/14 08:33:35;;;;;;;18.02;8.98;;;;;;;8.55;74.30;97257.91;5008332;28;20594;-73
2021/10/14 08:36:01;;;;;;;15.88;8.52;;;;;;;8.48;73.59;97262.06;5009106;28;20058;-72
2021/10/14 08:38:28;;;;;;;17.35;9.10;;;;;;;8.52;74.13;97261.22;5008815;28;20052;-73
2021/10/14 08:40:54;;;;;;;16.20;8.93;;;;;;;8.51;74.49;97262.31;5008776;28;20056;-75
2021/10/14 08:43:21;;;;;;;16.02;9.27;;;;;;;8.54;75.26;97259.00;5008409;28;20050;-74
2021/10/14 08:45:50;;;;;;;15.02;8.70;;;;;;;8.54;74.24;97261.72;5008609;28;20046;-74
2021/10/14 08:48:17;;;;;;;17.98;8.82;;;;;;;8.52;74.34;97253.06;5008318;28;20046;-74
2021/10/14 08:50:47;;;;;;;14.65;8.48;;;;;;;8.57;74.89;97255.75;5008070;28;20416;-73
2021/10/14 08:53:15;;;;;;;14.57;7.78;;;;;;;8.51;74.27;97256.88;5015354;28;20504;-74
2021/10/14 08:55:42;;;;;;;13.20;7.85;;;;;;;8.58;73.42;97268.22;5027663;28;20049;-74
2021/10/14 08:58:10;;;;;;;17.55;8.85;;;;;;;8.62;73.61;97258.41;5028471;28;20060;-75
2021/10/14 09:00:38;;;;;;;14.60;8.50;;;;;;;8.68;73.50;97261.09;5027985;28;20424;-74
2021/10/14 09:03:25;;;;;;;15.18;7.90;;;;;;;8.63;73.19;97262.75;5028380;28;20579;-74
2021/10/14 09:05:52;;;;;;;15.52;8.70;;;;;;;8.63;74.20;97254.59;5028446;28;20419;-74
2021/10/14 09:08:33;;;;;;;14.55;8.35;;;;;;;8.75;74.83;97256.16;5027737;28;20052;-74
2021/10/14 09:11:04;;;;;;;16.25;7.40;;;;;;;8.85;73.87;97258.78;5028094;28;20053;-74
2021/10/14 09:13:31;;;;;;;15.80;8.15;;;;;;;8.91;73.78;97249.47;5027836;28;20110;-73
2021/10/14 09:16:23;;;;;;;13.35;7.55;;;;;;;8.95;72.37;97257.88;5028332;28;20296;-74
2021/10/14 09:18:51;;;;;;;14.73;8.07;;;;;;;8.95;72.14;97255.97;5027614;28;20499;-75
2021/10/14 09:21:23;;;;;;;14.65;8.05;;;;;;;8.98;72.45;97255.41;5027522;28;20056;-74
2021/10/14 09:23:49;;;;;;;14.00;7.82;;;;;;;9.01;72.32;97254.81;5019042;28;20053;-74
2021/10/14 09:26:26;;;;;;;11.60;6.90;;;;;;;8.95;72.02;97255.97;5007106;28;20056;-74
2021/10/14 09:29:06;;;;;;;16.77;7.38;;;;;;;8.98;71.95;97244.56;5008726;28;20053;-74
2021/10/14 09:31:45;;;;;;;13.25;6.88;;;;;;;8.92;71.75;97251.09;5007757;28;20123;-73
2021/10/14 09:34:26;;;;;;;12.27;6.43;;;;;;;8.99;71.68;97240.72;5007132;28;20483;-74
2021/10/14 09:36:53;;;;;;;12.00;7.22;;;;;;;9.05;71.06;97239.59;5008186;28;20049;-73
2021/10/14 09:39:20;;;;;;;13.40;7.18;;;;;;;9.13;71.36;97240.84;5007640;28;20524;-73
2021/10/14 09:41:47;;;;;;;12.02;6.22;;;;;;;9.22;71.17;97246.47;5008662;28;20049;-74
2021/10/14 09:44:15;;;;;;;11.63;6.70;;;;;;;9.25;69.73;97243.22;5006859;28;20050;-73
2021/10/14 09:46:43;;;;;;;11.18;7.10;;;;;;;9.32;69.19;97239.03;5008658;28;20517;-74
2021/10/14 09:49:11;;;;;;;11.85;7.20;;;;;;;9.30;69.84;97243.16;5006565;28;20063;-74
2021/10/14 09:51:40;;;;;;;10.93;6.70;;;;;;;9.37;69.07;97240.88;5008374;28;20096;-74
2021/10/14 09:54:07;;;;;;;12.98;6.93;;;;;;;9.48;69.83;97241.59;5010127;28;20466;-75
2021/10/14 09:56:34;;;;;;;9.65;6.07;;;;;;;9.54;69.04;97243.97;5008256;28;20057;-74
2021/10/14 09:59:02;;;;;;;11.70;6.68;;;;;;;9.49;68.64;97243.19;5007431;28;20521;-74
2021/10/14 10:01:30;;;;;;;13.45;6.65;;;;;;;9.51;69.53;97239.13;5007525;28;20053;-73
2021/10/14 10:03:57;;;;;;;11.48;6.63;;;;;;;9.53;68.67;97238.81;5007699;28;20053;-74
2021/10/14 10:06:26;;;;;;;9.27;5.22;;;;;;;9.58;67.95;97242.28;5007094;28;20046;-74
2021/10/14 10:08:56;;;;;;;8.27;5.05;;;;;;;9.62;67.49;97239.81;5008107;28;20096;-74
2021/10/14 10:11:24;;;;;;;11.55;5.82;;;;;;;9.75;67.67;97243.72;5006859;28;20677;-74
2021/10/14 10:13:53;;;;;;;9.82;5.38;;;;;;;9.85;68.64;97240.88;5008056;28;20045;-74
2021/10/14 10:16:21;;;;;;;9.57;5.65;;;;;;;9.87;67.83;97238.69;5006879;28;20050;-74
2021/10/14 10:18:48;;;;;;;11.50;5.15;;;;;;;9.98;67.82;97244.81;5007389;28;20046;-74
2021/10/14 10:21:41;;;;;;;11.27;5.63;;;;;;;9.98;65.65;97232.00;5007353;28;20053;-75
2021/10/14 10:24:27;;;;;;;11.73;5.55;;;;;;;9.93;66.53;97242.97;5010734;28;20050;-75
2021/10/14 10:26:55;;;;;;;10.95;5.28;;;;;;;9.85;66.32;97238.16;5007895;28;20052;-74
2021/10/14 10:29:42;;;;;;;10.25;5.07;;;;;;;9.78;66.63;97235.00;5006628;28;20053;-75
2021/10/14 10:32:20;;;;;;;7.03;4.60;;;;;;;9.68;67.33;97231.28;5007198;28;20050;-74
2021/10/14 10:34:59;;;;;;;9.85;4.93;;;;;;;9.64;66.35;97224.00;5007085;28;20052;-74
2021/10/14 10:37:40;;;;;;;10.95;5.35;;;;;;;9.71;67.48;97229.91;5006723;28;20042;-74
2021/10/14 10:40:34;;;;;;;8.50;4.65;;;;;;;9.79;67.92;97225.72;5007851;28;20457;-73
2021/10/14 10:43:02;;;;;;;;;;;;;;;9.82;67.09;97227.88;5002241;28;20571;-74
2021/10/14 10:45:30;;;;;;;9.63;4.95;;;;;;;9.88;66.19;97215.81;5009111;28;19947;-74
2021/10/14 10:48:00;;;;;;;7.68;4.90;;;;;;;9.89;65.66;97220.16;5011005;28;20533;-73
2021/10/14 10:50:44;;;;;;;11.15;5.15;;;;;;;9.89;65.76;97214.72;5010738;28;20790;-74
2021/10/14 10:53:12;;;;;;;9.43;5.07;;;;;;;9.94;66.66;97218.16;5014361;28;20052;-74
2021/10/14 10:55:46;;;;;;;11.05;5.20;;;;;;;9.91;65.95;97213.31;5009933;28;20409;-74
2021/10/14 10:58:14;;;;;;;8.18;4.55;;;;;;;9.94;64.94;97211.94;5011028;28;20050;-74
2021/10/14 11:00:43;;;;;;;10.07;4.60;;;;;;;9.97;65.43;97205.91;5010489;28;20519;-74
2021/10/14 11:03:18;;;;;;;9.38;4.47;;;;;;;10.04;64.72;97206.34;5010665;28;20049;-74
2021/10/14 11:05:47;;;;;;;9.07;4.50;;;;;;;10.14;65.74;97199.94;5010707;28;20056;-74
2021/10/14 11:08:17;;;;;;;9.00;4.35;;;;;;;10.16;64.88;97198.53;5010351;28;20049;-73
2021/10/14 11:10:47;;;;;;;8.07;4.47;;;;;;;10.26;65.45;97180.47;5011392;28;20049;-74
2021/10/14 11:13:14;;;;;;;8.82;5.15;;;;;;;10.34;66.51;97183.34;5009722;28;20061;-79
2021/10/14 11:15:45;;;;;;;6.90;3.92;;;;;;;10.45;66.23;97173.09;5011015;28;20046;-74
2021/10/14 11:18:12;;;;;;;8.30;3.75;;;;;;;10.53;64.28;97169.69;5009930;28;20053;-74
2021/10/14 11:20:50;;;;;;;7.20;3.20;;;;;;;10.65;64.22;97178.22;5010620;28;20054;-74
2021/10/14 11:23:17;;;;;;;6.95;2.88;;;;;;;10.82;62.41;97165.94;5012649;28;20497;-74
2021/10/14 11:25:43;;;;;;;9.27;3.60;;;;;;;10.88;62.95;97159.28;5015056;28;20053;-73
2021/10/14 11:28:11;;;;;;;8.85;3.30;;;;;;;10.97;61.34;97161.03;5025942;28;20052;-74
2021/10/14 11:30:41;;;;;;;7.97;3.25;;;;;;;10.91;59.53;97158.69;5029871;28;20049;-75
2021/10/14 11:33:14;;;;;;;5.53;2.80;;;;;;;10.94;58.84;97149.91;5029893;28;20062;-74
2021/10/14 11:35:44;;;;;;;6.80;2.72;;;;;;;10.98;58.81;97154.47;5027608;28;20561;-74